Sioux Lookout Airport
CYXL : now visible

Airfield :











YOU CAN JOIN US ON...

 
LOGIN :

Register | Disclaimer

   EN    FR    IT 

 









Legend :    VFR   Marginal VFR   IFR   Intensive IFR   Very Intensive IFR
Visi :
Ceiling :
>= 8 km
>= 3000ft
5 to 8 km
1000 to 3000 ft
1500m to 5 km
500 to 1000 ft
800 to 1500m
200 to 500 ft
< 800m
< 200 ft
Symbols :   Thunderstorms  Fog  Heavy snow  Heavy precipitations  Wind > 20 kt






- Airport Elevation : 1258 ft
- IATA code : YXL


CYXL - Sioux Lookout

CURRENT METAR :
  • 071600Z 34010G18KT 15SM BKN025 03/M03 A3012 RMK SC7 SLP221

EXPIRED METARs :
  • 071500Z 33012G18KT 310V020 15SM BKN023 02/M03 A3013 RMK SC7 SLP222
  • 071431Z 34011G17KT 15SM BKN023 02/M03 A3012 RMK SC7 SLP221
  • 071400Z 35009G15KT 15SM -SHSN OVC023 02/M03 A3012 RMK SC8 CVTVC CLD EMBD SLP221

TAF TAF CYXL
Valid from the 07 at 14:00 until the 08 at 02:00 UTC


071338Z 0714/0802 34010KT P6SM BKN025
TEMPO 0714/0718 BKN020
BECMG 0716/0718 34010G20KT
FM071800 34010G20KT P6SM BKN050
BECMG 0800/0802 36008KT RMK NXT FCST BY 072000Z
CZWG FIR / North America



MET'MAP, your aeronautical weather chart ! - Copyright ORBIFLY December 2007 - Disclaimer

ORBIFLY MET'MAP TEAM :

Programming & Development : Alexandra Zaïnal
Concept & original design : Baudouin d'Aumeries
Assistance for programming : Marc-Olivier Méhu
Technical & hardware support : Manuel Goepfert

Contact : metmap@orbifly.com




SOURCES & CREDITS :

   NOAA       Earth
Advisory